Quitman, MS (39355)

6:03 AM CDT on May 22, 2015 (GMT -0500)
Key | | Change Station
CLOSE
Current Station
Airport
Location: Meridian,
Elevation: 308 ft
Nearby Weather Stations

Elev 308 ft 32.33 °N, 88.75 °W | Updated 5 minutes ago

Clear
Clear
52 °F
Feels Like 52 °F
N
8
Wind Variable Wind from NE

Today
High -- | Low -- °F
--% Chance of Precip.
Yesterday
High -- | Low -- °F
Precip. -- in
5:53 AM 7:49 PM
Waxing Crescent, 20% visible
Pressure 30.22 in
Visibility 10.0 miles
Clouds Clear
Dew Point 48 °F
Humidity 86%
Rainfall 0.00 in
Snow Depth Not available.
UV 0 out of 12
Pollen 5.60 out of 12
Air Quality Not available.
Flu Activity No Activity
METAR KMEI 221058Z 04007KT 10SM CLR 11/09 A3022 RMK AO2 SLP231 T01110089

More Conditions Fewer Conditions

Pressure 30.22 in
Visibility 10.0 miles
Clouds Clear
Dew Point 48 °F
Humidity 86%
Rainfall 0.00 in
Snow Depth Not available.
UV 0 out of 12
Pollen 5.60 out of 12
Air Quality Not available.
Flu Activity No Activity
METAR KMEI 221058Z 04007KT 10SM CLR 11/09 A3022 RMK AO2 SLP231 T01110089

More Conditions Fewer Conditions

10-Day Weather Forecast

Almanac

Astronomy

May. 22, 2015 Rise Set
Actual Time
Civil Twilight
Nautical Twilight
Astronomical Twilight
Moon
Length of Visible Light
Length of Day
Tomorrow will be .
, % of the Moon is Illuminated

Today's Extremes

State Highs State Lows

Community

WunderPhotos

Upload Photos

1,823,200 photos uploaded!

WunderBlogs® & News

Nearby

Air Quality

  Air Quality AQ Index Pollutant
Not available.

Snow Depth

Station Depth Elevation

Earthquake Activity

City Distance Mag. Time & Date
Minimum magnitude displayed is 2.5.

Coastal Water Temperatures

Place Temperature

Stations

Nearby Weather Stations

Station Location Temp. Windchill Dew Point Humidity Wind Precip. Elev Updated Type